• Join FlightAware (Why Join?)
  • Login
  • US Flag 
11:59PM EDT


 

Airport Tracker/Info


-or-


 

Live Flight TrackerFlight Track Log ✈ UPS1269 ✈ 03-Jul-2013 ✈ KGSO - KSDF

Flight Track Log - Related Links

Times and Time Zones

All times are in EDT time to prevent confusion due to time zone crossing. See the UPS1269 flight status page for this flight to view local times or setup timezone preferences in your user account.

Time Position Orientation Groundspeed Altitude Reporting Facility
EDT Latitude Longitude Course Direction KTS MPH feet Rate Location/Type
11:33PM 36.1506 -80.0711 296° West 282 325 7,900  Level Atlanta Center
11:34PM 36.1869 -80.1619 296° West 288 331 11,000 2,640 Climbing Atlanta Center
11:38PM 36.4605 -80.6013 296° West  Level FlightAware Approximate
11:40PM 36.3728 -80.9982 296° West 471 542 26,000  Level FlightAware ADS-B
11:41PM 36.3940 -81.0600 293° West 27,200 1,620 Climbing FlightAware
11:41PM 36.4250 -81.1490 293° West 464 534 27,900 540 Climbing FlightAware
11:42PM 36.4510 -81.2240 293° West 464 534 27,900 3,060 Level FlightAware
11:42PM 36.4965 -81.3579 293° West 464 534 31,800 3,420 Climbing FlightAware ADS-B
11:43PM 36.5222 -81.4319 293° West 467 537 32,000 180 Climbing FlightAware ADS-B
11:44PM 36.5473 -81.5056 293° West 462 532 32,000  Level FlightAware ADS-B
11:44PM 36.5814 -81.6061 293° West 467 537 32,000  Level FlightAware ADS-B
11:45PM 36.6107 -81.6939 293° West 477 549 32,000  Level FlightAware ADS-B
11:45PM 36.6383 -81.7753 293° West 480 552 32,000  Level FlightAware ADS-B
11:46PM 36.6767 -81.8894 293° West 477 549 32,000  Level FlightAware ADS-B
11:47PM 36.7070 -81.9776 293° West 471 542 32,000  Level FlightAware ADS-B
11:47PM 36.7331 -82.0552 293° West 472 543 32,000  Level FlightAware ADS-B
11:48PM 36.7602 -82.1389 292° West 479 551 32,000  Level FlightAware ADS-B
11:48PM 36.7871 -82.2182 293° West 481 554 32,000  Level FlightAware ADS-B
11:49PM 36.8176 -82.3105 292° West 480 552 32,000  Level FlightAware ADS-B
11:49PM 36.8437 -82.3897 292° West 479 551 32,000  Level FlightAware ADS-B
11:50PM 36.8691 -82.4661 293° West 478 550 32,000  Level FlightAware ADS-B
11:50PM 36.8944 -82.5426 292° West 479 551 32,000  Level FlightAware ADS-B
11:51PM 36.9195 -82.6194 292° West 479 551 32,000  Level FlightAware ADS-B
11:51PM 36.9446 -82.6963 292° West 479 551 32,000  Level FlightAware ADS-B
11:52PM 36.9702 -82.7734 293° West 481 554 32,000  Level FlightAware ADS-B
11:52PM 36.9984 -82.8610 292° West 482 555 32,000  Level FlightAware ADS-B
11:53PM 37.0291 -82.9565 292° West 482 555 32,000  Level FlightAware ADS-B
11:54PM 37.0545 -83.0339 292° West 481 554 32,000  Level FlightAware ADS-B
11:54PM 37.0801 -83.1139 292° West 482 555 32,000  Level FlightAware ADS-B
11:55PM 37.1060 -83.1940 292° West 483 556 32,000  Level FlightAware ADS-B
11:55PM 37.1314 -83.2720 292° West 482 555 32,000  Level FlightAware ADS-B
11:56PM 37.1569 -83.3523 292° West 482 555 32,000  Level FlightAware ADS-B
11:56PM 37.1827 -83.4326 292° West 483 556 32,000 -540 Level FlightAware ADS-B
11:57PM 37.2081 -83.5134 292° West 486 559 31,500 -1,020 Descending FlightAware ADS-B
11:57PM 37.2463 -83.6480 290° West 486 559 30,700 -960 Descending FlightAware ADS-B
11:58PM 37.2681 -83.7302 288° West 481 554 30,200 -1,020 Descending FlightAware ADS-B
11:58PM 37.2891 -83.8117 288° West 477 549 29,700 -1,380 Descending FlightAware ADS-B
11:59PM 37.3152 -83.9089 289° West 478 550 28,700 -2,280 Descending FlightAware ADS-B
12:00AM 37.3363 -83.9887 288° West 469 540 27,100 -3,180 Descending FlightAware ADS-B
12:00AM 37.3570 -84.0682 288° West 462 532 25,500 -3,060 Descending FlightAware ADS-B
12:01AM 37.3927 -84.2006 289° West 449 517 22,900 -2,940 Descending FlightAware ADS-B
12:02AM 37.4183 -84.2744 294° West 442 509 21,400 -2,820 Descending FlightAware ADS-B
12:02AM 37.4436 -84.3463 294° West 432 497 20,000 -1,800 Descending FlightAware ADS-B
12:08AM 37.7000 -85.0180 296° West 9,800 -1,680 Descending FlightAware
12:08AM 37.7380 -85.0690 313° West 350 403 9,800 60 Level FlightAware
12:09AM 37.7640 -85.1040 313° West 325 374 9,900 60 Climbing FlightAware
12:09AM 37.7950 -85.1470 312° West 308 354 9,900 -1,320 Level FlightAware
12:10AM 37.8200 -85.1810 313° West 296 341 8,600 -1,320 Descending FlightAware
12:10AM 37.8480 -85.2200 312° West 296 341 8,600 -1,560 Level FlightAware
12:11AM 37.8890 -85.2770 312° West 286 329 6,700 -2,520 Descending FlightAware
12:11AM 37.9020 -85.2960 311° West 287 330 6,300 -1,080 Descending FlightAware
12:12AM 37.9280 -85.3310 313° West 281 323 5,900 -600 Descending FlightAware
12:12AM 37.9440 -85.3530 313° West 280 322 5,800 -120 Descending FlightAware
12:13AM 37.9850 -85.4110 312° West 283 326 5,800 60 Level FlightAware
12:13AM 38.0120 -85.4490 312° West 282 325 5,900 120 Climbing FlightAware
12:14AM 38.0330 -85.4780 313° West 265 305 5,900  Level FlightAware
12:14AM 38.0580 -85.5120 313° West 246 283 5,900 -180 Level FlightAware
12:14AM 38.0680 -85.5270 310° West 246 283 5,800 -840 Descending FlightAware
12:15AM 38.0870 -85.5530 313° West 240 276 5,400 -780 Descending FlightAware
12:16AM 38.1270 -85.5890 325° Northwest 239 275 4,900 -480 Descending FlightAware
12:16AM 38.1560 -85.6030 339° North 238 274 4,800 -120 Descending FlightAware
12:16AM 38.1860 -85.6170 340° North 239 275 4,800  Level FlightAware
12:17AM 38.2080 -85.6270 340° North 239 275 4,800  Level FlightAware
12:17AM 38.2370 -85.6370 345° North 240 276 4,800  Level FlightAware
12:18AM 38.2680 -85.6470 346° North 241 277 4,800 120 Level FlightAware
12:18AM 38.2900 -85.6550 344° North 240 276 4,900 120 Climbing FlightAware
12:18AM 38.3190 -85.6660 343° North 239 275 4,900  Level FlightAware
12:19AM 38.3490 -85.6770 344° North 239 275 4,900 -120 Level FlightAware
12:19AM 38.3790 -85.6880 344° North 239 275 4,800 -120 Descending FlightAware
12:20AM 38.4050 -85.6970 345° North 239 275 4,800 120 Level FlightAware
12:20AM 38.4230 -85.7040 343° North 240 276 4,900  Climbing FlightAware
12:21AM 38.4500 -85.7140 344° North 239 275 4,800 -120 Descending FlightAware
12:21AM 38.4800 -85.7260 343° North 227 261 4,800 120 Level FlightAware
12:21AM 38.4900 -85.7400 312° West 212 244 4,900  Climbing FlightAware
12:21AM 38.4930 -85.7510 289° West 205 236 4,800  Descending FlightAware
12:22AM 38.4900 -85.7740 261° West 187 215 4,900 180 Climbing FlightAware
12:22AM 38.4880 -85.7850 257° West 183 211 4,900  Level FlightAware
12:22AM 38.4830 -85.8170 259° West 180 207 4,900 -120 Level FlightAware
12:23AM 38.4700 -85.8370 230° Southwest 171 197 4,800 -120 Descending FlightAware
12:23AM 38.4490 -85.8250 156° South 174 200 4,800 60 Level FlightAware
12:24AM 38.4290 -85.8140 157° South 174 200 4,900  Climbing FlightAware
12:24AM 38.4160 -85.8090 163° South 175 201 4,800 -840 Descending FlightAware
12:25AM 38.3930 -85.8010 165° South 178 205 4,300 -960 Descending FlightAware
12:25AM 38.3700 -85.7950 168° South 170 196 3,900 -840 Descending FlightAware
12:25AM 38.3520 -85.7880 163° South 168 193 3,600 -780 Descending FlightAware
12:26AM 38.3290 -85.7800 165° South 167 192 3,200 -900 Descending FlightAware
12:26AM 38.3200 -85.7770 165° South 165 190 3,000 -1,020 Descending FlightAware
12:27AM 38.3010 -85.7700 164° South 163 188 2,600 -960 Descending FlightAware
12:27AM 38.2820 -85.7640 166° South 162 186 2,200 -840 Descending FlightAware
12:27AM 38.2640 -85.7580 165° South 141 162 1,900 -720 Descending FlightAware
12:28AM 38.2490 -85.7520 163° South 111 128 1,600 -660 Descending FlightAware
12:28AM 38.2350 -85.7480 167° South 115 132 1,300 -600 Descending FlightAware
12:29AM 38.2290 -85.7460 165° South 116 133 1,200 -540 Descending FlightAware
12:29AM 38.2160 -85.7410 163° South 118 136 1,000 -720 Descending FlightAware
12:29AM 38.2000 -85.7360 166° South 115 132 600 -660 Descending FlightAware
12:30AM 38.1870 -85.7310 163° South 121 139 400 -480 Descending FlightAware
12:30AM 38.1750 -85.7270 165° South 69 79 -960 Descending FlightAware
12:31AM 38.1720 -85.7260 165° South 29 33  Level FlightAware
12:31AM 38.1710 -85.7270 218° Southwest 16 18  Level FlightAware